Time;durP1;ratioP1;P1;durP2;ratioP2;P2;SDS_P1;SDS_P2;PMS_P1;PMS_P2;Temp;Humidity;BMP_temperature;BMP_pressure;BME280_temperature;BME280_humidity;BME280_pressure;Samples;Min_cycle;Max_cycle;Signal;HPM_P1;HPM_P2
2022/05/05 00:01:32;;;;;;;4.97;3.80;;;7.70;99.90;;;;;;5046782;28;20522;-91
2022/05/05 00:03:58;;;;;;;2.17;2.07;;;7.70;99.90;;;;;;5046880;28;20304;-92
2022/05/05 00:06:28;;;;;;;7.07;4.17;;;7.80;99.90;;;;;;5046133;28;20626;-92
2022/05/05 00:08:54;;;;;;;3.60;3.30;;;7.90;99.90;;;;;;5046996;28;20178;-90
2022/05/05 00:16:49;;;;;;;5.03;2.70;;;7.80;99.90;;;;;;5046702;28;20226;-93
2022/05/05 00:19:15;;;;;;;2.30;2.10;;;7.80;99.90;;;;;;5047299;28;20214;-91
2022/05/05 00:21:40;;;;;;;2.93;2.27;;;7.80;99.90;;;;;;5047787;28;20586;-93
2022/05/05 00:24:07;;;;;;;3.00;2.70;;;7.80;99.90;;;;;;5047051;28;20221;-90
2022/05/05 00:26:32;;;;;;;4.43;2.83;;;7.70;99.90;;;;;;5030522;28;20186;-92
2022/05/05 00:28:58;;;;;;;5.50;2.37;;;7.60;99.90;;;;;;5046658;28;20743;-90
2022/05/05 00:31:24;;;;;;;5.57;3.60;;;7.60;99.90;;;;;;5048188;28;20218;-91
2022/05/05 00:33:50;;;;;;;4.67;2.97;;;7.50;99.90;;;;;;5046785;28;20347;-92
2022/05/05 00:36:16;;;;;;;2.13;2.03;;;7.50;99.90;;;;;;5046536;28;20213;-90
2022/05/05 00:38:41;;;;;;;4.47;2.07;;;7.50;99.90;;;;;;5046941;28;20615;-91
2022/05/05 00:41:08;;;;;;;4.07;2.97;;;7.50;99.90;;;;;;5045213;28;20256;-91
2022/05/05 00:43:34;;;;;;;3.27;2.60;;;7.60;99.90;;;;;;5045880;28;20348;-91
2022/05/05 00:46:00;;;;;;;11.73;2.97;;;7.60;99.90;;;;;;5029928;28;20670;-91
2022/05/05 00:48:27;;;;;;;3.17;2.50;;;7.70;99.90;;;;;;5047194;28;20580;-90
2022/05/05 00:50:53;;;;;;;5.13;3.03;;;7.80;99.90;;;;;;5045633;28;20209;-91
2022/05/05 00:53:20;;;;;;;3.80;3.43;;;7.90;99.90;;;;;;5029600;28;20212;-91
2022/05/05 00:55:46;;;;;;;5.30;3.23;;;7.90;99.90;;;;;;5062247;28;20224;-91
2022/05/05 00:58:14;;;;;;;4.93;4.00;;;7.90;99.90;;;;;;5028863;28;20240;-91
2022/05/05 01:00:40;;;;;;;6.40;4.03;;;7.90;99.90;;;;;;5045894;28;20681;-91
2022/05/05 01:03:11;;;;;;;2.93;2.63;;;7.90;99.90;;;;;;5029466;28;20194;-92
2022/05/05 01:05:40;;;;;;;10.40;3.77;;;7.90;99.90;;;;;;5030117;28;20213;-91
2022/05/05 01:08:06;;;;;;;7.03;3.10;;;7.80;99.90;;;;;;5028973;28;20248;-91
2022/05/05 01:10:32;;;;;;;7.50;3.17;;;7.80;99.90;;;;;;5029428;28;20222;-92
2022/05/05 01:12:58;;;;;;;3.77;3.40;;;7.70;99.90;;;;;;5028730;28;20679;-90
2022/05/05 01:15:24;;;;;;;5.00;3.30;;;7.60;99.90;;;;;;5044950;28;20222;-90
2022/05/05 01:17:50;;;;;;;12.23;3.27;;;7.50;99.90;;;;;;5045626;28;20185;-91
2022/05/05 01:20:23;;;;;;;8.43;3.07;;;7.50;99.90;;;;;;5027885;28;20214;-91
2022/05/05 01:22:52;;;;;;;4.80;2.40;;;7.50;99.90;;;;;;5061641;28;20225;-91
2022/05/05 01:28:14;;;;;;;3.93;2.60;;;7.50;99.90;;;;;;5046444;28;20237;-92
2022/05/05 01:30:44;;;;;;;3.80;3.50;;;7.50;99.90;;;;;;5046394;28;20225;-91
2022/05/05 01:33:11;;;;;;;4.83;3.90;;;7.50;99.90;;;;;;5045675;28;20592;-90
2022/05/05 01:35:37;;;;;;;5.60;2.73;;;7.40;99.90;;;;;;5029625;28;20542;-91
2022/05/05 01:38:03;;;;;;;4.57;3.17;;;7.40;99.90;;;;;;5027776;28;20228;-91
2022/05/05 01:40:29;;;;;;;6.07;2.47;;;7.40;99.90;;;;;;5027166;28;20217;-92
2022/05/05 01:42:55;;;;;;;4.00;3.37;;;7.40;99.90;;;;;;5043885;28;20230;-92
2022/05/05 01:45:20;;;;;;;4.33;3.40;;;7.50;99.90;;;;;;5044796;28;20226;-92
2022/05/05 01:47:46;;;;;;;3.83;3.27;;;7.50;99.90;;;;;;5028860;28;20546;-91
2022/05/05 01:50:12;;;;;;;5.17;3.07;;;7.50;99.90;;;;;;5028661;28;20309;-92
2022/05/05 01:52:37;;;;;;;5.00;2.87;;;7.40;99.90;;;;;;5028279;28;20728;-90
2022/05/05 01:55:04;;;;;;;4.63;3.37;;;7.40;99.90;;;;;;5046083;28;20289;-90
2022/05/05 01:57:30;;;;;;;4.13;3.67;;;7.30;99.90;;;;;;5044410;28;20268;-91
2022/05/05 01:59:56;;;;;;;3.90;2.93;;;7.30;99.90;;;;;;5027325;28;20206;-90
2022/05/05 02:02:22;;;;;;;5.13;3.03;;;7.30;99.90;;;;;;5044566;28;20185;-91
2022/05/05 02:04:47;;;;;;;3.73;3.00;;;7.30;99.90;;;;;;5011332;28;20612;-92
2022/05/05 02:07:13;;;;;;;7.00;3.23;;;7.30;99.90;;;;;;5012148;28;20219;-92
2022/05/05 02:09:39;;;;;;;3.17;2.87;;;7.30;99.90;;;;;;5011350;28;20221;-92
2022/05/05 02:12:05;;;;;;;3.37;3.03;;;7.30;99.90;;;;;;5026902;28;20239;-90
2022/05/05 02:14:31;;;;;;;3.87;3.40;;;7.10;99.90;;;;;;5044719;28;20197;-91
2022/05/05 02:16:57;;;;;;;4.33;2.47;;;7.00;99.90;;;;;;5044496;28;20394;-90
2022/05/05 02:19:22;;;;;;;2.77;2.53;;;7.00;99.90;;;;;;5027441;28;20218;-92
2022/05/05 02:21:48;;;;;;;3.53;3.23;;;7.10;99.90;;;;;;5027847;28;20302;-91
2022/05/05 02:24:14;;;;;;;4.73;2.83;;;7.00;99.90;;;;;;5028170;28;20589;-91
2022/05/05 02:26:39;;;;;;;5.77;2.97;;;6.90;99.90;;;;;;5044833;28;20263;-91
2022/05/05 02:29:05;;;;;;;6.33;4.43;;;6.70;99.90;;;;;;5045277;28;20218;-90
2022/05/05 02:31:31;;;;;;;3.47;3.03;;;6.60;99.90;;;;;;5044459;28;20222;-91
2022/05/05 02:33:57;;;;;;;3.47;2.47;;;6.40;99.90;;;;;;5011762;28;20463;-91
2022/05/05 02:39:06;;;;;;;7.50;2.83;;;6.20;99.90;;;;;;5044233;28;20224;-92
2022/05/05 02:41:32;;;;;;;1.57;1.30;;;6.00;99.90;;;;;;5028288;28;20606;-90
2022/05/05 02:43:58;;;;;;;3.10;2.40;;;6.00;99.90;;;;;;5044307;28;20337;-89
2022/05/05 02:46:23;;;;;;;2.97;2.43;;;6.00;99.90;;;;;;5011132;28;20221;-90
2022/05/05 02:48:49;;;;;;;4.63;2.60;;;6.10;99.90;;;;;;5028250;28;20666;-92
2022/05/05 02:51:15;;;;;;;5.63;3.70;;;6.10;99.90;;;;;;5043538;28;20210;-91
2022/05/05 02:56:24;;;;;;;6.83;4.43;;;6.20;99.90;;;;;;5043341;28;20643;-91
2022/05/05 02:58:53;;;;;;;3.33;2.37;;;6.10;99.90;;;;;;5025712;28;20268;-91
2022/05/05 03:01:19;;;;;;;6.50;4.03;;;6.10;99.90;;;;;;5042740;28;20248;-91
2022/05/05 03:03:44;;;;;;;5.33;3.17;;;6.00;99.90;;;;;;5042188;28;20690;-92
2022/05/05 03:06:10;;;;;;;14.20;4.57;;;6.00;99.90;;;;;;5043855;28;20221;-92
2022/05/05 03:08:36;;;;;;;5.00;4.10;;;6.10;99.90;;;;;;5027763;28;20194;-91
2022/05/05 03:11:01;;;;;;;4.20;2.57;;;6.10;99.90;;;;;;5027071;28;20607;-91
2022/05/05 03:13:27;;;;;;;8.60;2.53;;;6.00;99.90;;;;;;5027362;28;20218;-91
2022/05/05 03:15:53;;;;;;;3.40;2.97;;;5.70;99.90;;;;;;5043659;28;20210;-92
2022/05/05 03:18:18;;;;;;;8.47;3.67;;;5.60;99.90;;;;;;5044150;28;20785;-91
2022/05/05 03:20:44;;;;;;;4.23;2.83;;;5.70;99.90;;;;;;5044555;28;21094;-91
2022/05/05 03:23:10;;;;;;;6.13;3.87;;;5.80;99.90;;;;;;5044499;28;20679;-91
2022/05/05 03:25:35;;;;;;;4.27;2.87;;;5.90;99.90;;;;;;5026692;28;20387;-91
2022/05/05 03:28:01;;;;;;;3.53;3.23;;;6.00;99.90;;;;;;5043392;28;20632;-90
2022/05/05 03:30:27;;;;;;;4.37;2.97;;;6.10;99.90;;;;;;5027385;28;20221;-90
2022/05/05 03:32:53;;;;;;;5.10;4.43;;;6.20;99.90;;;;;;5043395;28;20194;-91
2022/05/05 03:35:20;;;;;;;5.30;3.07;;;6.10;99.90;;;;;;5011709;28;20194;-91
2022/05/05 03:37:46;;;;;;;7.50;4.27;;;6.20;99.90;;;;;;5043414;28;20279;-92
2022/05/05 03:40:12;;;;;;;3.27;2.87;;;6.20;99.90;;;;;;5042078;28;20233;-91
2022/05/05 03:42:37;;;;;;;2.57;2.33;;;6.20;99.90;;;;;;5047894;28;21174;-91
2022/05/05 03:45:04;;;;;;;3.37;3.00;;;6.10;99.90;;;;;;5014332;28;20308;-90
2022/05/05 03:47:29;;;;;;;4.07;3.73;;;6.00;99.90;;;;;;5047614;28;20259;-91
2022/05/05 03:49:55;;;;;;;6.73;3.13;;;6.00;99.90;;;;;;5030945;28;20217;-91
2022/05/05 03:52:21;;;;;;;3.70;2.17;;;5.90;99.90;;;;;;5046768;28;20225;-92
2022/05/05 03:54:46;;;;;;;5.30;3.50;;;5.80;99.90;;;;;;5047266;28;20217;-91
2022/05/05 03:57:12;;;;;;;2.50;1.87;;;5.70;99.90;;;;;;5046830;28;21386;-88
2022/05/05 03:59:38;;;;;;;4.77;3.27;;;5.50;99.90;;;;;;5031222;28;20202;-91
2022/05/05 04:02:04;;;;;;;5.93;2.67;;;5.30;99.90;;;;;;5030476;28;20217;-91
2022/05/05 04:04:30;;;;;;;3.40;2.70;;;5.40;99.90;;;;;;5046440;28;20320;-91
2022/05/05 04:06:55;;;;;;;6.07;3.23;;;5.60;99.90;;;;;;5030363;28;20309;-89
2022/05/05 04:09:21;;;;;;;4.37;2.63;;;5.80;99.90;;;;;;5046280;28;20217;-91
2022/05/05 04:11:47;;;;;;;4.60;3.10;;;5.90;99.90;;;;;;5030298;28;20726;-91
2022/05/05 04:14:12;;;;;;;2.60;1.63;;;6.00;99.90;;;;;;5013620;28;20308;-93
2022/05/05 04:16:38;;;;;;;3.83;2.83;;;6.10;99.90;;;;;;5046347;28;20248;-90
2022/05/05 04:19:04;;;;;;;4.47;2.60;;;6.20;99.90;;;;;;5047194;28;20554;-92
2022/05/05 04:21:31;;;;;;;13.77;3.13;;;6.20;99.90;;;;;;5029967;28;20304;-90
2022/05/05 04:23:57;;;;;;;6.07;3.43;;;6.20;99.90;;;;;;5045646;28;20218;-89
2022/05/05 04:26:24;;;;;;;4.90;2.83;;;6.30;99.90;;;;;;5029895;28;20324;-91
2022/05/05 04:28:50;;;;;;;3.03;2.27;;;6.20;99.90;;;;;;5013192;28;20213;-91
2022/05/05 04:31:19;;;;;;;4.60;2.63;;;6.20;99.90;;;;;;5046172;28;20237;-90
2022/05/05 04:33:44;;;;;;;5.50;4.00;;;6.10;99.90;;;;;;5047713;28;20216;-91
2022/05/05 04:36:12;;;;;;;3.27;2.97;;;6.10;99.90;;;;;;5046265;28;20643;-90
2022/05/05 04:38:37;;;;;;;4.10;2.47;;;6.20;99.90;;;;;;5029982;28;20201;-90
2022/05/05 04:41:04;;;;;;;6.47;4.60;;;6.20;99.90;;;;;;5046125;28;20217;-90
2022/05/05 04:43:30;;;;;;;3.70;2.67;;;6.20;99.90;;;;;;5026444;28;20277;-90
2022/05/05 04:45:56;;;;;;;4.93;4.47;;;6.10;99.90;;;;;;5047732;28;20233;-91
2022/05/05 04:48:21;;;;;;;7.63;3.57;;;6.20;99.90;;;;;;5045989;28;20209;-91
2022/05/05 04:50:47;;;;;;;6.13;2.90;;;6.20;99.90;;;;;;5046249;28;20182;-90
2022/05/05 04:53:13;;;;;;;3.10;2.63;;;6.30;99.90;;;;;;5028591;28;20210;-90
2022/05/05 04:55:38;;;;;;;8.43;2.97;;;6.40;99.90;;;;;;5061951;28;20218;-90
2022/05/05 04:58:04;;;;;;;6.43;2.40;;;6.50;99.90;;;;;;5029133;28;20724;-90
2022/05/05 05:00:30;;;;;;;5.47;3.00;;;6.60;99.90;;;;;;5029261;28;20213;-90
2022/05/05 05:02:57;;;;;;;2.40;1.90;;;6.60;99.90;;;;;;5046126;28;20531;-89
2022/05/05 05:05:22;;;;;;;6.57;3.20;;;6.70;99.90;;;;;;5045229;28;20210;-90
2022/05/05 05:07:48;;;;;;;3.10;2.80;;;6.80;99.90;;;;;;5045885;28;21113;-91
2022/05/05 05:10:14;;;;;;;5.10;2.60;;;6.90;99.90;;;;;;5029278;28;20229;-90
2022/05/05 05:12:40;;;;;;;3.10;2.80;;;7.00;99.90;;;;;;5029010;28;20316;-92
2022/05/05 05:15:07;;;;;;;5.47;3.50;;;7.10;99.90;;;;;;5045472;28;20966;-91
2022/05/05 05:17:33;;;;;;;5.07;3.60;;;7.40;99.90;;;;;;5046544;28;20189;-92
2022/05/05 05:19:59;;;;;;;3.77;2.90;;;8.10;99.90;;;;;;5044651;28;20222;-91
2022/05/05 05:22:25;;;;;;;3.53;3.07;;;8.60;99.90;;;;;;5028627;28;20225;-88
2022/05/05 05:24:51;;;;;;;5.67;2.93;;;9.30;99.90;;;;;;5028035;28;20259;-90
2022/05/05 05:27:16;;;;;;;11.93;3.03;;;9.80;99.90;;;;;;5046166;28;20301;-88
2022/05/05 05:29:42;;;;;;;3.83;3.07;;;10.00;99.90;;;;;;5029057;28;20290;-91
2022/05/05 05:32:08;;;;;;;4.87;3.17;;;10.50;99.90;;;;;;5028115;28;20230;-90
2022/05/05 05:34:34;;;;;;;11.20;4.57;;;11.20;99.90;;;;;;5028702;28;20253;-87
2022/05/05 05:37:00;;;;;;;3.33;3.03;;;11.70;99.90;;;;;;5028290;28;20611;-88
2022/05/05 05:39:25;;;;;;;5.90;3.37;;;12.30;99.90;;;;;;5027785;28;20814;-89
2022/05/05 05:41:51;;;;;;;5.00;3.13;;;11.80;99.90;;;;;;5028613;28;20277;-88
2022/05/05 05:44:17;;;;;;;5.03;3.00;;;11.00;99.90;;;;;;5044575;28;20742;-90
2022/05/05 05:46:43;;;;;;;6.57;3.40;;;10.30;99.90;;;;;;5044664;28;20221;-89
2022/05/05 05:49:09;;;;;;;5.20;3.20;;;10.30;99.90;;;;;;5043155;28;20222;-89
2022/05/05 05:51:35;;;;;;;6.90;3.50;;;10.80;99.90;;;;;;5010384;28;20597;-88
2022/05/05 05:54:01;;;;;;;10.17;3.90;;;11.00;99.90;;;;;;5026827;28;20709;-90
2022/05/05 05:56:27;;;;;;;6.23;3.37;;;10.90;99.90;;;;;;5028278;28;20182;-90
2022/05/05 05:58:53;;;;;;;6.43;3.80;;;10.80;99.90;;;;;;5045159;28;20213;-89
2022/05/05 06:01:19;;;;;;;4.80;4.00;;;10.50;99.90;;;;;;5042596;28;21175;-91
2022/05/05 06:03:53;;;;;;;8.60;4.47;;;10.20;99.90;;;;;;5027020;28;20785;-89
2022/05/05 06:06:23;;;;;;;9.93;3.30;;;10.10;99.90;;;;;;5043877;28;20224;-90
2022/05/05 06:08:50;;;;;;;5.00;3.83;;;10.10;99.90;;;;;;5060557;28;20197;-89
2022/05/05 06:11:18;;;;;;;4.87;3.23;;;10.20;99.90;;;;;;5044450;28;20224;-89
2022/05/05 06:13:44;;;;;;;6.83;3.63;;;10.20;99.90;;;;;;5060683;28;20233;-89
2022/05/05 06:16:10;;;;;;;2.73;2.33;;;10.20;99.90;;;;;;5045028;28;20229;-89
2022/05/05 06:18:41;;;;;;;4.30;3.20;;;10.30;99.90;;;;;;5027340;28;20205;-90
2022/05/05 06:21:07;;;;;;;5.60;4.07;;;10.50;99.90;;;;;;5044833;28;20380;-90
2022/05/05 06:23:33;;;;;;;8.33;4.07;;;10.60;99.90;;;;;;5027074;28;20272;-91
2022/05/05 06:25:59;;;;;;;8.60;3.40;;;10.80;99.90;;;;;;5011123;28;20312;-91
2022/05/05 06:28:25;;;;;;;6.33;3.77;;;10.90;99.90;;;;;;5044612;28;20289;-91
2022/05/05 06:30:51;;;;;;;5.77;3.03;;;11.00;99.90;;;;;;5060534;28;20678;-90
2022/05/05 06:33:16;;;;;;;6.17;3.77;;;11.20;99.90;;;;;;5027861;28;20671;-91
2022/05/05 06:35:42;;;;;;;4.73;3.30;;;11.40;99.90;;;;;;5044807;28;20288;-91
2022/05/05 06:38:08;;;;;;;10.50;7.90;;;11.40;99.90;;;;;;5028451;28;20222;-91
2022/05/05 06:40:37;;;;;;;5.13;3.60;;;11.70;99.90;;;;;;5011443;28;21143;-90
2022/05/05 06:43:03;;;;;;;3.53;2.90;;;12.00;99.90;;;;;;5028104;28;21390;-90
2022/05/05 06:45:29;;;;;;;4.43;2.73;;;12.30;99.90;;;;;;5028099;28;20237;-91
2022/05/05 06:47:58;;;;;;;9.63;3.63;;;12.50;99.90;;;;;;5044398;28;20415;-92
2022/05/05 06:50:25;;;;;;;6.20;3.20;;;13.30;99.90;;;;;;5028377;28;20235;-93
2022/05/05 06:52:51;;;;;;;3.77;2.93;;;13.50;99.90;;;;;;5037182;28;20209;-92
2022/05/05 06:55:17;;;;;;;6.07;4.30;;;13.90;99.90;;;;;;5044836;28;20218;-91
2022/05/05 06:57:44;;;;;;;6.63;3.63;;;14.20;99.90;;;;;;5027909;28;20213;-91
2022/05/05 07:00:11;;;;;;;3.03;2.40;;;13.60;99.90;;;;;;5028396;28;20197;-93
2022/05/05 07:02:37;;;;;;;6.97;2.40;;;12.70;99.90;;;;;;5044357;28;20189;-91
2022/05/05 07:07:47;;;;;;;5.20;3.20;;;12.10;99.90;;;;;;5030863;28;20213;-90
2022/05/05 07:12:57;;;;;;;6.83;3.13;;;12.10;99.90;;;;;;5044491;28;20360;-90
2022/05/05 07:15:23;;;;;;;6.87;3.13;;;12.20;99.90;;;;;;5048366;28;20724;-92
2022/05/05 07:17:49;;;;;;;3.40;2.47;;;12.30;99.90;;;;;;5053555;28;20195;-92
2022/05/05 07:20:15;;;;;;;4.00;2.67;;;12.20;99.90;;;;;;5053475;28;20252;-93
2022/05/05 07:22:40;;;;;;;5.27;3.20;;;12.20;99.90;;;;;;5034486;28;20516;-93
2022/05/05 07:25:07;;;;;;;4.50;2.97;;;12.20;99.90;;;;;;5037219;28;20249;-92
2022/05/05 07:27:33;;;;;;;6.27;2.90;;;12.20;99.90;;;;;;5038157;28;20296;-92
2022/05/05 07:29:59;;;;;;;6.20;3.10;;;12.40;99.90;;;;;;5050813;28;20239;-87
2022/05/05 07:32:25;;;;;;;7.90;2.43;;;12.60;99.90;;;;;;5005430;28;20182;-89
2022/05/05 07:34:51;;;;;;;4.73;2.90;;;12.70;99.90;;;;;;5030153;28;20228;-90
2022/05/05 07:37:16;;;;;;;3.70;2.50;;;12.60;99.90;;;;;;5015224;28;20221;-91
2022/05/05 07:39:42;;;;;;;3.10;2.83;;;12.70;99.90;;;;;;5047880;28;20206;-88
2022/05/05 07:42:08;;;;;;;5.93;3.43;;;12.90;99.90;;;;;;5031054;28;20197;-91
2022/05/05 07:44:34;;;;;;;4.13;2.47;;;13.50;99.90;;;;;;5048977;28;20577;-87
2022/05/05 07:47:00;;;;;;;6.97;2.93;;;14.30;99.90;;;;;;5014314;28;20222;-89
2022/05/05 07:49:26;;;;;;;3.63;3.13;;;15.50;99.90;;;;;;5047040;28;20221;-93
2022/05/05 07:51:52;;;;;;;7.63;3.63;;;16.40;99.90;;;;;;5030277;28;20218;-92
2022/05/05 07:54:39;;;;;;;4.77;2.80;;;16.30;99.90;;;;;;5030776;28;20217;-92
2022/05/05 07:57:07;;;;;;;5.30;2.67;;;16.10;99.90;;;;;;5033380;28;20186;-93
2022/05/05 07:59:33;;;;;;;6.30;3.00;;;17.60;99.90;;;;;;5031585;28;20182;-92
2022/05/05 08:01:59;;;;;;;5.37;3.67;;;19.00;99.90;;;;;;5030362;28;20252;-94
2022/05/05 08:04:25;;;;;;;8.17;3.53;;;20.20;99.90;;;;;;5030626;28;20254;-94
2022/05/05 08:06:51;;;;;;;4.07;2.33;;;19.70;99.90;;;;;;5047048;28;20214;-94
2022/05/05 08:09:17;;;;;;;5.20;2.77;;;19.40;99.90;;;;;;5047071;28;20210;-95
2022/05/05 08:11:43;;;;;;;5.43;2.93;;;18.70;99.90;;;;;;5047632;28;20201;-92
2022/05/05 08:14:08;;;;;;;4.80;2.83;;;20.20;99.90;;;;;;5046677;28;20232;-93
2022/05/05 08:16:34;;;;;;;4.83;2.60;;;21.30;99.90;;;;;;5047042;28;20230;-93
2022/05/05 08:19:00;;;;;;;4.03;3.20;;;21.20;99.90;;;;;;5030342;28;20222;-93
2022/05/05 08:21:26;;;;;;;4.73;2.83;;;20.60;99.90;;;;;;5030265;28;20221;-94
2022/05/05 08:28:28;;;;;;;6.97;2.77;;;20.20;99.90;;;;;;5047757;28;21025;-91
2022/05/05 08:29:22;;;;;;;5.27;3.03;;;19.90;99.90;;;;;;5033732;28;20234;-94
2022/05/05 08:31:48;;;;;;;6.13;3.10;;;19.10;99.90;;;;;;5048494;28;20764;-94
2022/05/05 08:34:14;;;;;;;5.80;3.47;;;18.70;99.90;;;;;;5030499;28;20304;-92
2022/05/05 08:36:40;;;;;;;6.00;2.73;;;18.60;99.90;;;;;;5028703;28;20297;-93
2022/05/05 08:39:05;;;;;;;5.80;3.00;;;18.10;99.90;;;;;;5045984;28;20286;-92
2022/05/05 08:41:32;;;;;;;5.53;2.83;;;17.80;99.90;;;;;;5029176;28;20194;-93
2022/05/05 08:43:59;;;;;;;3.27;2.60;;;18.80;99.90;;;;;;5048516;28;20328;-91
2022/05/05 08:46:27;;;;;;;8.07;3.20;;;20.20;99.90;;;;;;5015300;28;20236;-93
2022/05/05 08:49:01;;;;;;;8.60;2.73;;;21.00;99.90;;;;;;5030040;28;20209;-91
2022/05/05 08:51:34;;;;;;;4.10;2.90;;;21.40;99.90;;;;;;5060007;28;20221;-92
2022/05/05 08:54:05;;;;;;;4.53;3.33;;;22.00;99.90;;;;;;5044133;28;20185;-92
2022/05/05 08:56:31;;;;;;;4.57;2.83;;;21.90;99.90;;;;;;5062661;28;20187;-93
2022/05/05 08:58:57;;;;;;;9.60;2.80;;;21.20;99.90;;;;;;5029048;28;20317;-92
2022/05/05 09:01:24;;;;;;;7.07;2.30;;;21.70;99.90;;;;;;5029328;28;20260;-92
2022/05/05 09:03:50;;;;;;;3.93;2.53;;;22.70;99.90;;;;;;5029088;28;20233;-93
2022/05/05 09:06:15;;;;;;;8.13;2.90;;;24.10;99.90;;;;;;5012677;28;20217;-93
2022/05/05 09:08:45;;;;;;;8.63;3.20;;;26.00;99.90;;;;;;5046442;28;20189;-93
2022/05/05 09:11:20;;;;;;;7.35;3.17;;;26.70;99.00;;;;;;5044767;28;20225;-92
2022/05/05 09:13:46;;;;;;;14.65;3.80;;;26.50;96.40;;;;;;5062525;28;20210;-93
2022/05/05 09:16:24;;;;;;;4.88;3.75;;;24.50;97.60;;;;;;5013311;28;20224;-92
2022/05/05 09:18:50;;;;;;;7.63;4.07;;;24.60;98.40;;;;;;5044904;28;20232;-92
2022/05/05 09:21:16;;;;;;;4.95;3.45;;;25.10;97.40;;;;;;5028758;28;20696;-92
2022/05/05 09:26:29;;;;;;;9.43;4.00;;;24.60;98.80;;;;;;5046405;28;20218;-92
2022/05/05 09:28:55;;;;;;;6.95;3.70;;;23.10;99.90;;;;;;5045392;28;20300;-91
2022/05/05 09:31:22;;;;;;;7.47;3.08;;;23.20;99.70;;;;;;5045598;28;20241;-92
2022/05/05 09:33:48;;;;;;;4.70;3.50;;;22.50;99.90;;;;;;5045250;28;20248;-91
2022/05/05 09:36:16;;;;;;;5.82;3.97;;;23.20;99.90;;;;;;5046435;28;20299;-93
2022/05/05 09:38:48;;;;;;;6.63;3.90;;;23.90;99.90;;;;;;5044929;28;20186;-89
2022/05/05 09:41:13;;;;;;;9.23;3.70;;;24.30;97.20;;;;;;5045257;28;20217;-92
2022/05/05 09:43:39;;;;;;;5.40;3.25;;;24.00;97.50;;;;;;5044415;28;20240;-91
2022/05/05 09:46:27;;;;;;;4.78;3.65;;;23.60;99.70;;;;;;5011953;28;20220;-92
2022/05/05 09:49:07;;;;;;;4.72;3.72;;;22.70;99.90;;;;;;5044850;28;20218;-93
2022/05/05 09:51:37;;;;;;;7.00;3.85;;;22.40;99.90;;;;;;5029803;28;20209;-92
2022/05/05 09:59:41;;;;;;;5.03;3.42;;;22.10;99.90;;;;;;5046349;28;20214;-93
2022/05/05 10:05:15;;;;;;;6.93;4.05;;;23.20;99.90;;;;;;5046723;28;20229;-91
2022/05/05 10:07:44;;;;;;;5.10;3.60;;;23.80;99.80;;;;;;5030450;28;20218;-91
2022/05/05 10:10:11;;;;;;;6.13;4.60;;;24.30;99.90;;;;;;5038200;28;20217;-92
2022/05/05 10:12:39;;;;;;;8.13;4.47;;;24.80;99.30;;;;;;5052012;28;20240;-91
2022/05/05 10:15:05;;;;;;;5.88;3.90;;;24.60;97.10;;;;;;5046783;28;20193;-92
2022/05/05 10:17:35;;;;;;;5.20;3.40;;;24.80;98.00;;;;;;5031728;28;20262;-92
2022/05/05 10:20:03;;;;;;;6.68;4.40;;;25.90;97.40;;;;;;5052574;28;20221;-94
2022/05/05 10:22:58;;;;;;;9.57;5.00;;;26.20;99.90;;;;;;5038154;28;20213;-90
2022/05/05 10:25:32;;;;;;;6.50;4.63;;;25.70;95.20;;;;;;5015219;28;20745;-89
2022/05/05 10:27:59;;;;;;;7.95;5.00;;;24.00;97.80;;;;;;5043383;28;20400;-90
2022/05/05 10:30:35;;;;;;;7.55;4.32;;;24.00;99.20;;;;;;5043326;28;20213;-89
2022/05/05 10:33:08;;;;;;;7.03;4.53;;;24.30;98.50;;;;;;5044562;28;20324;-89
2022/05/05 10:35:45;;;;;;;6.70;4.40;;;24.40;99.40;;;;;;5045483;28;20621;-88
2022/05/05 10:38:42;;;;;;;9.82;4.90;;;24.10;99.40;;;;;;5042716;28;20209;-91
2022/05/05 10:41:29;;;;;;;8.88;4.72;;;24.10;98.90;;;;;;5042389;28;20210;-88
2022/05/05 10:44:16;;;;;;;7.70;3.90;;;23.50;99.90;;;;;;5042374;28;20368;-89
2022/05/05 10:46:54;;;;;;;10.18;5.50;;;24.20;99.90;;;;;;5058979;28;20241;-91
2022/05/05 10:49:36;;;;;;;7.75;3.83;;;23.70;99.90;;;;;;5043453;28;20292;-88
2022/05/05 10:52:10;;;;;;;7.68;4.57;;;22.70;99.90;;;;;;5061939;28;20243;-91
2022/05/05 10:54:36;;;;;;;9.23;5.57;;;19.90;99.90;;;;;;5063223;28;20224;-88
2022/05/05 10:57:26;;;;;;;10.23;5.30;;;19.80;99.90;;;;;;5047281;28;20991;-90
2022/05/05 11:00:36;;;;;;;10.40;5.80;;;21.10;99.90;;;;;;5048603;28;20582;-87
2022/05/05 11:03:09;;;;;;;9.17;5.60;;;22.30;99.90;;;;;;5011401;28;20204;-89
2022/05/05 11:05:36;;;;;;;9.03;6.00;;;23.20;99.90;;;;;;5049760;28;20206;-88
2022/05/05 11:08:08;;;;;;;9.88;5.65;;;23.80;99.90;;;;;;5047573;28;20696;-88
2022/05/05 11:13:41;;;;;;;8.10;5.57;;;22.30;99.90;;;;;;5048348;28;20221;-88
2022/05/05 11:22:13;;;;;;;16.67;8.13;;;21.10;99.90;;;;;;5048374;28;20252;-88
2022/05/05 11:24:47;;;;;;;12.37;7.33;;;20.80;99.90;;;;;;5045744;28;20262;-88
2022/05/05 11:27:17;;;;;;;14.53;9.13;;;20.40;99.90;;;;;;5047958;28;20233;-88
2022/05/05 11:29:56;;;;;;;18.20;9.87;;;19.80;99.90;;;;;;5053524;28;20205;-92
2022/05/05 11:32:29;;;;;;;12.77;7.60;;;19.70;99.90;;;;;;5055663;28;20220;-91
2022/05/05 11:34:55;;;;;;;19.17;8.83;;;19.10;99.90;;;;;;5054483;28;20218;-91
2022/05/05 11:37:21;;;;;;;13.47;8.07;;;19.00;99.90;;;;;;5053238;28;20226;-91
2022/05/05 11:39:48;;;;;;;18.60;8.83;;;18.60;99.90;;;;;;5031738;28;20234;-91
2022/05/05 11:42:14;;;;;;;17.40;9.00;;;18.40;99.90;;;;;;5053369;28;20290;-91
2022/05/05 11:44:45;;;;;;;17.50;9.53;;;18.70;99.90;;;;;;5050764;28;20682;-91
2022/05/05 11:47:19;;;;;;;18.67;9.77;;;18.30;99.90;;;;;;5051538;28;20222;-92
2022/05/05 11:49:52;;;;;;;14.83;7.50;;;18.30;99.90;;;;;;5031600;28;20652;-91
2022/05/05 11:52:19;;;;;;;16.77;9.10;;;18.00;99.90;;;;;;5064153;28;20218;-89
2022/05/05 11:54:48;;;;;;;16.10;9.20;;;18.00;99.90;;;;;;5046844;28;21032;-89
2022/05/05 11:57:39;;;;;;;20.00;10.37;;;17.90;99.90;;;;;;5046832;28;20391;-91
2022/05/05 12:02:56;;;;;;;13.27;7.03;;;17.90;99.90;;;;;;5045876;28;20754;-88
2022/05/05 12:05:24;;;;;;;16.40;8.67;;;18.10;99.90;;;;;;5046052;28;20249;-89
2022/05/05 12:07:50;;;;;;;12.00;6.27;;;18.10;99.90;;;;;;5045570;28;20587;-88
2022/05/05 12:10:18;;;;;;;18.13;9.80;;;18.00;99.90;;;;;;5047784;28;20789;-87
2022/05/05 12:12:46;;;;;;;15.40;8.10;;;18.30;99.90;;;;;;5045777;28;20210;-88
2022/05/05 12:15:13;;;;;;;16.07;8.53;;;18.20;99.90;;;;;;5046987;28;20269;-89
2022/05/05 12:17:57;;;;;;;14.17;9.40;;;18.00;99.90;;;;;;5029794;28;20197;-90
2022/05/05 12:20:24;;;;;;;13.50;8.40;;;18.20;99.90;;;;;;5046328;28;20217;-87
2022/05/05 12:23:01;;;;;;;21.80;8.73;;;18.20;99.90;;;;;;5046511;28;20549;-91
2022/05/05 12:25:27;;;;;;;13.60;7.87;;;17.80;99.90;;;;;;5047327;28;20257;-88
2022/05/05 12:27:53;;;;;;;14.17;8.70;;;17.60;99.90;;;;;;5046798;28;20611;-88
2022/05/05 12:30:35;;;;;;;16.77;8.63;;;17.60;99.90;;;;;;5045680;28;20226;-88
2022/05/05 12:33:03;;;;;;;17.33;9.17;;;17.80;99.90;;;;;;5047448;28;20696;-87
2022/05/05 12:35:41;;;;;;;14.80;8.70;;;18.10;99.90;;;;;;5046186;28;20192;-88
2022/05/05 12:38:09;;;;;;;16.53;8.20;;;18.00;99.90;;;;;;5046403;28;20205;-89
2022/05/05 12:40:37;;;;;;;11.80;7.80;;;17.70;99.90;;;;;;5044783;28;20222;-89
2022/05/05 12:43:20;;;;;;;15.80;8.07;;;18.00;99.90;;;;;;5046184;28;20246;-91
2022/05/05 12:45:47;;;;;;;20.00;8.17;;;18.30;99.90;;;;;;5046303;28;20225;-89
2022/05/05 12:48:13;;;;;;;18.63;7.57;;;18.50;99.90;;;;;;5029023;28;20727;-88
2022/05/05 12:50:47;;;;;;;15.37;7.70;;;18.30;99.90;;;;;;5045881;28;20189;-88
2022/05/05 13:01:31;;;;;;;13.27;7.20;;;17.80;99.90;;;;;;5045953;28;20669;-89
2022/05/05 13:04:05;;;;;;;19.17;8.53;;;17.80;99.90;;;;;;5045051;28;20230;-90
2022/05/05 13:06:32;;;;;;;15.90;8.40;;;18.00;99.90;;;;;;5045654;28;20295;-89
2022/05/05 13:08:58;;;;;;;17.53;8.87;;;18.20;99.90;;;;;;5012469;28;20547;-89
2022/05/05 13:11:24;;;;;;;20.67;9.03;;;18.30;99.90;;;;;;5029192;28;20181;-90
2022/05/05 13:13:52;;;;;;;13.17;6.77;;;18.30;99.90;;;;;;5060249;28;20213;-90
2022/05/05 13:16:18;;;;;;;19.70;10.97;;;18.20;99.90;;;;;;5045016;28;20213;-90
2022/05/05 13:18:44;;;;;;;15.83;8.60;;;18.10;99.90;;;;;;5011771;28;20237;-88
2022/05/05 13:21:11;;;;;;;20.43;9.40;;;18.40;99.90;;;;;;5046051;28;20189;-88
2022/05/05 13:23:37;;;;;;;17.87;8.97;;;18.10;99.90;;;;;;5029167;28;20530;-90
2022/05/05 13:26:03;;;;;;;21.60;9.43;;;17.60;99.90;;;;;;5029087;28;20228;-89
2022/05/05 13:28:34;;;;;;;16.10;8.77;;;17.80;99.90;;;;;;5045161;28;20245;-90
2022/05/05 13:30:59;;;;;;;19.17;8.87;;;18.40;99.90;;;;;;5045965;28;20217;-90
2022/05/05 13:33:25;;;;;;;20.90;11.07;;;18.60;99.90;;;;;;5011917;28;20229;-89
2022/05/05 13:35:51;;;;;;;18.47;9.80;;;18.70;99.90;;;;;;5028549;28;20197;-89
2022/05/05 13:38:18;;;;;;;22.47;10.40;;;18.50;99.90;;;;;;5011759;28;20802;-90
2022/05/05 13:40:44;;;;;;;20.30;10.67;;;18.60;99.90;;;;;;5044674;28;20214;-90
2022/05/05 13:43:10;;;;;;;21.37;11.13;;;18.60;99.90;;;;;;5045678;28;20585;-90
2022/05/05 13:45:36;;;;;;;19.63;9.87;;;19.10;99.90;;;;;;5045928;28;20237;-89